sensor_id;sensor_type;location;lat;lon;timestamp;pressure;altitude;pressure_sealevel;temperature;humidity
77003;BME280;65939;50.060;14.288;2023-03-01T00:01:27;98343.91;;;-1.89;71.75
77003;BME280;65939;50.060;14.288;2023-03-01T00:03:28;98339.69;;;-1.90;71.50
77003;BME280;65939;50.060;14.288;2023-03-01T00:05:29;98342.28;;;-1.92;71.60
77003;BME280;65939;50.060;14.288;2023-03-01T00:07:30;98344.06;;;-1.94;71.72
77003;BME280;65939;50.060;14.288;2023-03-01T00:09:30;98343.25;;;-1.96;71.47
77003;BME280;65939;50.060;14.288;2023-03-01T00:11:33;98344.16;;;-1.97;71.61
77003;BME280;65939;50.060;14.288;2023-03-01T00:13:34;98350.19;;;-1.98;71.63
77003;BME280;65939;50.060;14.288;2023-03-01T00:15:39;98347.72;;;-2.01;71.42
77003;BME280;65939;50.060;14.288;2023-03-01T00:17:40;98349.47;;;-2.03;71.57
77003;BME280;65939;50.060;14.288;2023-03-01T00:19:40;98344.50;;;-2.06;71.78
77003;BME280;65939;50.060;14.288;2023-03-01T00:21:41;98347.09;;;-2.08;72.31
77003;BME280;65939;50.060;14.288;2023-03-01T00:23:42;98350.47;;;-2.07;71.99
77003;BME280;65939;50.060;14.288;2023-03-01T00:25:43;98350.53;;;-2.09;72.11
77003;BME280;65939;50.060;14.288;2023-03-01T00:27:44;98348.84;;;-2.10;72.23
77003;BME280;65939;50.060;14.288;2023-03-01T00:29:45;98344.63;;;-2.11;72.42
77003;BME280;65939;50.060;14.288;2023-03-01T00:31:45;98343.84;;;-2.13;72.40
77003;BME280;65939;50.060;14.288;2023-03-01T00:33:46;98343.00;;;-2.13;72.26
77003;BME280;65939;50.060;14.288;2023-03-01T00:35:47;98342.13;;;-2.12;72.51
77003;BME280;65939;50.060;14.288;2023-03-01T00:37:47;98334.47;;;-2.14;72.60
77003;BME280;65939;50.060;14.288;2023-03-01T00:39:48;98332.81;;;-2.15;72.65
77003;BME280;65939;50.060;14.288;2023-03-01T00:41:49;98330.25;;;-2.15;72.51
77003;BME280;65939;50.060;14.288;2023-03-01T00:43:50;98320.94;;;-2.16;72.98
77003;BME280;65939;50.060;14.288;2023-03-01T00:45:50;98326.06;;;-2.18;72.76
77003;BME280;65939;50.060;14.288;2023-03-01T00:47:51;98322.69;;;-2.18;72.65
77003;BME280;65939;50.060;14.288;2023-03-01T00:49:52;98321.91;;;-2.20;72.80
77003;BME280;65939;50.060;14.288;2023-03-01T00:51:53;98321.91;;;-2.20;72.66
77003;BME280;65939;50.060;14.288;2023-03-01T00:53:58;98321.06;;;-2.21;73.26
77003;BME280;65939;50.060;14.288;2023-03-01T00:55:59;98319.41;;;-2.22;73.03
77003;BME280;65939;50.060;14.288;2023-03-01T00:57:59;98317.78;;;-2.24;73.34
77003;BME280;65939;50.060;14.288;2023-03-01T01:00:03;98317.84;;;-2.26;72.95
77003;BME280;65939;50.060;14.288;2023-03-01T01:02:04;98321.28;;;-2.27;73.55
77003;BME280;65939;50.060;14.288;2023-03-01T01:04:08;98319.59;;;-2.28;73.53
77003;BME280;65939;50.060;14.288;2023-03-01T01:06:19;98316.22;;;-2.28;73.39
77003;BME280;65939;50.060;14.288;2023-03-01T01:08:20;98310.31;;;-2.30;73.24
77003;BME280;65939;50.060;14.288;2023-03-01T01:10:21;98312.06;;;-2.31;73.74
77003;BME280;65939;50.060;14.288;2023-03-01T01:12:22;98316.31;;;-2.31;73.54
77003;BME280;65939;50.060;14.288;2023-03-01T01:14:22;98312.09;;;-2.32;73.81
77003;BME280;65939;50.060;14.288;2023-03-01T01:16:25;98311.25;;;-2.33;73.43
77003;BME280;65939;50.060;14.288;2023-03-01T01:18:26;98304.47;;;-2.34;73.75
77003;BME280;65939;50.060;14.288;2023-03-01T01:20:27;98297.66;;;-2.35;73.86
77003;BME280;65939;50.060;14.288;2023-03-01T01:22:27;98298.56;;;-2.36;73.78
77003;BME280;65939;50.060;14.288;2023-03-01T01:24:29;98289.25;;;-2.38;73.61
77003;BME280;65939;50.060;14.288;2023-03-01T01:26:31;98294.44;;;-2.40;73.80
77003;BME280;65939;50.060;14.288;2023-03-01T01:28:33;98293.59;;;-2.41;73.88
77003;BME280;65939;50.060;14.288;2023-03-01T01:30:33;98286.84;;;-2.42;73.42
77003;BME280;65939;50.060;14.288;2023-03-01T01:32:34;98290.25;;;-2.43;74.15
77003;BME280;65939;50.060;14.288;2023-03-01T01:34:34;98286.09;;;-2.45;73.94
77003;BME280;65939;50.060;14.288;2023-03-01T01:36:35;98281.81;;;-2.45;74.25
77003;BME280;65939;50.060;14.288;2023-03-01T01:38:37;98284.38;;;-2.45;74.34
77003;BME280;65939;50.060;14.288;2023-03-01T01:40:48;98283.53;;;-2.45;74.37
77003;BME280;65939;50.060;14.288;2023-03-01T01:42:49;98285.25;;;-2.46;74.42
77003;BME280;65939;50.060;14.288;2023-03-01T01:45:36;98286.97;;;-2.46;74.42
77003;BME280;65939;50.060;14.288;2023-03-01T01:47:37;98285.31;;;-2.47;74.50
77003;BME280;65939;50.060;14.288;2023-03-01T01:49:43;98277.69;;;-2.49;73.99
77003;BME280;65939;50.060;14.288;2023-03-01T01:51:49;98278.56;;;-2.50;74.12
77003;BME280;65939;50.060;14.288;2023-03-01T01:53:58;98283.72;;;-2.51;74.28
77003;BME280;65939;50.060;14.288;2023-03-01T01:56:03;98283.78;;;-2.53;74.63
77003;BME280;65939;50.060;14.288;2023-03-01T01:58:11;98282.16;;;-2.55;74.63
77003;BME280;65939;50.060;14.288;2023-03-01T02:00:19;98280.53;;;-2.58;74.69
77003;BME280;65939;50.060;14.288;2023-03-01T02:02:21;98275.53;;;-2.61;75.05
77003;BME280;65939;50.060;14.288;2023-03-01T02:04:22;98283.25;;;-2.62;74.80
77003;BME280;65939;50.060;14.288;2023-03-01T02:06:51;98277.41;;;-2.66;74.98
77003;BME280;65939;50.060;14.288;2023-03-01T02:09:00;98275.84;;;-2.70;74.98
77003;BME280;65939;50.060;14.288;2023-03-01T02:11:03;98274.25;;;-2.74;74.61
77003;BME280;65939;50.060;14.288;2023-03-01T02:13:05;98270.91;;;-2.76;75.35
77003;BME280;65939;50.060;14.288;2023-03-01T02:15:06;98271.84;;;-2.79;75.58
77003;BME280;65939;50.060;14.288;2023-03-01T02:17:07;98265.97;;;-2.81;75.37
77003;BME280;65939;50.060;14.288;2023-03-01T02:19:17;98272.00;;;-2.83;75.00
77003;BME280;65939;50.060;14.288;2023-03-01T02:23:41;98264.50;;;-2.90;75.48
77003;BME280;65939;50.060;14.288;2023-03-01T02:28:01;98260.31;;;-2.92;75.30
77003;BME280;65939;50.060;14.288;2023-03-01T02:30:05;98256.09;;;-2.92;75.88
77003;BME280;65939;50.060;14.288;2023-03-01T02:32:07;98254.38;;;-2.93;76.13
77003;BME280;65939;50.060;14.288;2023-03-01T02:34:15;98249.28;;;-2.93;76.18
77003;BME280;65939;50.060;14.288;2023-03-01T02:36:21;98246.72;;;-2.93;75.80
77003;BME280;65939;50.060;14.288;2023-03-01T02:38:24;98250.13;;;-2.92;75.87
77003;BME280;65939;50.060;14.288;2023-03-01T02:40:25;98250.16;;;-2.94;75.81
77003;BME280;65939;50.060;14.288;2023-03-01T02:42:35;98252.00;;;-2.97;76.15
77003;BME280;65939;50.060;14.288;2023-03-01T02:44:38;98255.44;;;-2.98;75.90
77003;BME280;65939;50.060;14.288;2023-03-01T02:46:50;98263.19;;;-3.01;76.22
77003;BME280;65939;50.060;14.288;2023-03-01T02:48:54;98255.53;;;-3.01;76.51
77003;BME280;65939;50.060;14.288;2023-03-01T02:55:46;98253.13;;;-3.06;75.61
77003;BME280;65939;50.060;14.288;2023-03-01T02:57:48;98253.97;;;-3.07;75.43
77003;BME280;65939;50.060;14.288;2023-03-01T02:59:54;98258.22;;;-3.06;75.49
77003;BME280;65939;50.060;14.288;2023-03-01T03:01:55;98259.16;;;-3.08;76.09
77003;BME280;65939;50.060;14.288;2023-03-01T03:03:55;98259.94;;;-3.06;76.25
77003;BME280;65939;50.060;14.288;2023-03-01T03:05:56;98257.38;;;-3.06;76.62
77003;BME280;65939;50.060;14.288;2023-03-01T03:08:00;98254.78;;;-3.05;76.37
77003;BME280;65939;50.060;14.288;2023-03-01T03:10:05;98251.41;;;-3.05;76.01
77003;BME280;65939;50.060;14.288;2023-03-01T03:12:06;98254.78;;;-3.05;76.51
77003;BME280;65939;50.060;14.288;2023-03-01T03:14:08;98251.41;;;-3.05;76.67
77003;BME280;65939;50.060;14.288;2023-03-01T03:16:15;98254.81;;;-3.06;76.12
77003;BME280;65939;50.060;14.288;2023-03-01T03:18:16;98256.53;;;-3.07;76.19
77003;BME280;65939;50.060;14.288;2023-03-01T03:20:20;98252.31;;;-3.08;76.64
77003;BME280;65939;50.060;14.288;2023-03-01T03:22:22;98247.22;;;-3.08;76.44
77003;BME280;65939;50.060;14.288;2023-03-01T03:24:22;98252.38;;;-3.09;76.11
77003;BME280;65939;50.060;14.288;2023-03-01T03:26:23;98258.34;;;-3.10;76.36
77003;BME280;65939;50.060;14.288;2023-03-01T03:28:24;98248.19;;;-3.12;76.01
77003;BME280;65939;50.060;14.288;2023-03-01T03:30:28;98236.31;;;-3.13;76.59
77003;BME280;65939;50.060;14.288;2023-03-01T03:32:30;98230.34;;;-3.14;76.82
77003;BME280;65939;50.060;14.288;2023-03-01T03:34:30;98233.78;;;-3.13;76.98
77003;BME280;65939;50.060;14.288;2023-03-01T03:36:31;98235.53;;;-3.15;76.97
77003;BME280;65939;50.060;14.288;2023-03-01T03:38:31;98232.22;;;-3.19;76.74
77003;BME280;65939;50.060;14.288;2023-03-01T03:40:36;98228.88;;;-3.21;76.76
77003;BME280;65939;50.060;14.288;2023-03-01T03:42:37;98228.88;;;-3.21;76.94
77003;BME280;65939;50.060;14.288;2023-03-01T03:44:37;98221.28;;;-3.22;76.48
77003;BME280;65939;50.060;14.288;2023-03-01T03:46:38;98223.81;;;-3.22;76.93
77003;BME280;65939;50.060;14.288;2023-03-01T03:48:42;98224.72;;;-3.23;76.75
77003;BME280;65939;50.060;14.288;2023-03-01T03:50:47;98224.81;;;-3.26;76.67
77003;BME280;65939;50.060;14.288;2023-03-01T03:52:49;98221.41;;;-3.27;77.22
77003;BME280;65939;50.060;14.288;2023-03-01T03:54:50;98223.13;;;-3.27;77.64
77003;BME280;65939;50.060;14.288;2023-03-01T03:56:50;98222.28;;;-3.28;77.43
77003;BME280;65939;50.060;14.288;2023-03-01T03:58:54;98216.34;;;-3.28;77.54
77003;BME280;65939;50.060;14.288;2023-03-01T04:00:57;98225.72;;;-3.29;77.28
77003;BME280;65939;50.060;14.288;2023-03-01T04:02:57;98224.84;;;-3.28;77.61
77003;BME280;65939;50.060;14.288;2023-03-01T04:04:58;98222.34;;;-3.29;77.35
77003;BME280;65939;50.060;14.288;2023-03-01T04:06:58;98223.22;;;-3.30;77.07
77003;BME280;65939;50.060;14.288;2023-03-01T04:08:59;98223.25;;;-3.32;77.20
77003;BME280;65939;50.060;14.288;2023-03-01T04:11:05;98227.47;;;-3.31;77.43
77003;BME280;65939;50.060;14.288;2023-03-01T04:13:25;98227.47;;;-3.31;78.35
77003;BME280;65939;50.060;14.288;2023-03-01T04:15:26;98229.19;;;-3.31;77.75
77003;BME280;65939;50.060;14.288;2023-03-01T04:17:27;98225.00;;;-3.32;77.90
77003;BME280;65939;50.060;14.288;2023-03-01T04:19:28;98228.44;;;-3.33;78.05
77003;BME280;65939;50.060;14.288;2023-03-01T04:21:28;98223.34;;;-3.35;78.29
77003;BME280;65939;50.060;14.288;2023-03-01T04:23:29;98216.59;;;-3.36;78.15
77003;BME280;65939;50.060;14.288;2023-03-01T04:25:30;98223.41;;;-3.37;78.46
77003;BME280;65939;50.060;14.288;2023-03-01T04:27:31;98222.59;;;-3.37;77.99
77003;BME280;65939;50.060;14.288;2023-03-01T04:29:32;98214.94;;;-3.37;78.21
77003;BME280;65939;50.060;14.288;2023-03-01T04:31:32;98212.41;;;-3.39;78.04
77003;BME280;65939;50.060;14.288;2023-03-01T04:33:34;98211.56;;;-3.39;78.36
77003;BME280;65939;50.060;14.288;2023-03-01T04:35:36;98206.53;;;-3.41;78.11
77003;BME280;65939;50.060;14.288;2023-03-01T04:37:37;98215.03;;;-3.42;78.12
77003;BME280;65939;50.060;14.288;2023-03-01T04:39:37;98214.28;;;-3.44;78.68
77003;BME280;65939;50.060;14.288;2023-03-01T04:41:45;98211.75;;;-3.45;78.60
77003;BME280;65939;50.060;14.288;2023-03-01T04:43:47;98220.34;;;-3.48;78.46
77003;BME280;65939;50.060;14.288;2023-03-01T04:45:48;98222.09;;;-3.50;78.54
77003;BME280;65939;50.060;14.288;2023-03-01T04:47:49;98231.53;;;-3.52;79.02
77003;BME280;65939;50.060;14.288;2023-03-01T04:49:52;98235.84;;;-3.54;78.33
77003;BME280;65939;50.060;14.288;2023-03-01T04:51:52;98235.03;;;-3.56;78.18
77003;BME280;65939;50.060;14.288;2023-03-01T04:53:53;98233.47;;;-3.60;78.55
77003;BME280;65939;50.060;14.288;2023-03-01T04:55:56;98235.25;;;-3.64;78.03
77003;BME280;65939;50.060;14.288;2023-03-01T04:57:57;98229.41;;;-3.67;78.50
77003;BME280;65939;50.060;14.288;2023-03-01T04:59:58;98229.56;;;-3.72;78.19
77003;BME280;65939;50.060;14.288;2023-03-01T05:01:59;98227.16;;;-3.76;78.26
77003;BME280;65939;50.060;14.288;2023-03-01T05:04:01;98225.44;;;-3.77;78.22
77003;BME280;65939;50.060;14.288;2023-03-01T05:06:03;98227.19;;;-3.78;78.21
77003;BME280;65939;50.060;14.288;2023-03-01T05:08:08;98230.63;;;-3.79;78.17
77003;BME280;65939;50.060;14.288;2023-03-01T05:10:09;98227.22;;;-3.79;77.51
77003;BME280;65939;50.060;14.288;2023-03-01T05:12:10;98226.34;;;-3.78;78.07
77003;BME280;65939;50.060;14.288;2023-03-01T05:14:11;98228.06;;;-3.79;77.93
77003;BME280;65939;50.060;14.288;2023-03-01T05:16:11;98226.34;;;-3.78;78.07
77003;BME280;65939;50.060;14.288;2023-03-01T05:18:12;98228.94;;;-3.80;78.59
77003;BME280;65939;50.060;14.288;2023-03-01T05:20:13;98225.66;;;-3.83;78.32
77003;BME280;65939;50.060;14.288;2023-03-01T05:22:13;98233.38;;;-3.87;78.61
77003;BME280;65939;50.060;14.288;2023-03-01T05:24:14;98230.91;;;-3.90;79.04
77003;BME280;65939;50.060;14.288;2023-03-01T05:26:19;98224.19;;;-3.92;78.73
77003;BME280;65939;50.060;14.288;2023-03-01T05:28:22;98225.00;;;-3.92;78.87
77003;BME280;65939;50.060;14.288;2023-03-01T05:30:22;98224.16;;;-3.91;78.42
77003;BME280;65939;50.060;14.288;2023-03-01T05:32:23;98217.34;;;-3.92;78.49
77003;BME280;65939;50.060;14.288;2023-03-01T05:34:31;98208.84;;;-3.91;78.31
77003;BME280;65939;50.060;14.288;2023-03-01T05:36:32;98213.13;;;-3.91;78.55
77003;BME280;65939;50.060;14.288;2023-03-01T05:38:33;98208.88;;;-3.92;78.86
77003;BME280;65939;50.060;14.288;2023-03-01T05:40:34;98215.69;;;-3.91;78.83
77003;BME280;65939;50.060;14.288;2023-03-01T05:42:35;98206.31;;;-3.91;78.75
77003;BME280;65939;50.060;14.288;2023-03-01T05:44:36;98207.97;;;-3.90;79.02
77003;BME280;65939;50.060;14.288;2023-03-01T05:46:37;98202.81;;;-3.88;79.08
77003;BME280;65939;50.060;14.288;2023-03-01T05:48:38;98205.31;;;-3.87;78.85
77003;BME280;65939;50.060;14.288;2023-03-01T05:50:43;98204.41;;;-3.84;79.46
77003;BME280;65939;50.060;14.288;2023-03-01T05:52:51;98212.00;;;-3.82;79.27
77003;BME280;65939;50.060;14.288;2023-03-01T05:54:52;98210.25;;;-3.80;79.45
77003;BME280;65939;50.060;14.288;2023-03-01T05:56:52;98206.84;;;-3.81;79.34
77003;BME280;65939;50.060;14.288;2023-03-01T05:58:53;98214.56;;;-3.82;79.24
77003;BME280;65939;50.060;14.288;2023-03-01T06:00:55;98212.94;;;-3.85;79.33
77003;BME280;65939;50.060;14.288;2023-03-01T06:02:56;98216.38;;;-3.86;79.22
77003;BME280;65939;50.060;14.288;2023-03-01T06:04:57;98212.22;;;-3.90;79.24
77003;BME280;65939;50.060;14.288;2023-03-01T06:06:58;98213.06;;;-3.90;78.84
77003;BME280;65939;50.060;14.288;2023-03-01T06:08:59;98212.97;;;-3.87;79.01
77003;BME280;65939;50.060;14.288;2023-03-01T06:10:59;98204.41;;;-3.84;79.13
77003;BME280;65939;50.060;14.288;2023-03-01T06:13:00;98205.16;;;-3.80;78.95
77003;BME280;65939;50.060;14.288;2023-03-01T06:15:01;98206.75;;;-3.76;79.09
77003;BME280;65939;50.060;14.288;2023-03-01T06:17:02;98209.22;;;-3.73;78.83
77003;BME280;65939;50.060;14.288;2023-03-01T06:19:02;98209.06;;;-3.69;79.07
77003;BME280;65939;50.060;14.288;2023-03-01T06:21:04;98207.28;;;-3.67;78.50
77003;BME280;65939;50.060;14.288;2023-03-01T06:23:05;98205.59;;;-3.66;78.30
77003;BME280;65939;50.060;14.288;2023-03-01T06:25:06;98211.44;;;-3.63;78.21
77003;BME280;65939;50.060;14.288;2023-03-01T06:27:07;98220.69;;;-3.60;78.66
77003;BME280;65939;50.060;14.288;2023-03-01T06:29:08;98221.44;;;-3.56;78.38
77003;BME280;65939;50.060;14.288;2023-03-01T06:31:09;98217.16;;;-3.56;79.02
77003;BME280;65939;50.060;14.288;2023-03-01T06:33:09;98216.31;;;-3.55;78.62
77003;BME280;65939;50.060;14.288;2023-03-01T06:35:12;98209.44;;;-3.53;79.26
77003;BME280;65939;50.060;14.288;2023-03-01T06:37:13;98205.91;;;-3.49;78.72
77003;BME280;65939;50.060;14.288;2023-03-01T06:39:14;98209.16;;;-3.44;78.86
77003;BME280;65939;50.060;14.288;2023-03-01T06:41:14;98207.34;;;-3.40;78.85
77003;BME280;65939;50.060;14.288;2023-03-01T06:43:15;98210.59;;;-3.35;78.75
77003;BME280;65939;50.060;14.288;2023-03-01T06:45:17;98211.41;;;-3.34;78.44
77003;BME280;65939;50.060;14.288;2023-03-01T06:47:18;98217.41;;;-3.35;78.84
77003;BME280;65939;50.060;14.288;2023-03-01T06:49:18;98209.06;;;-3.41;79.28
77003;BME280;65939;50.060;14.288;2023-03-01T06:51:20;98205.69;;;-3.41;79.37
77003;BME280;65939;50.060;14.288;2023-03-01T06:53:20;98203.97;;;-3.41;79.45
77003;BME280;65939;50.060;14.288;2023-03-01T06:55:21;98206.44;;;-3.38;79.43
77003;BME280;65939;50.060;14.288;2023-03-01T06:57:22;98213.03;;;-3.30;79.37
77003;BME280;65939;50.060;14.288;2023-03-01T06:59:22;98211.16;;;-3.25;79.53
77003;BME280;65939;50.060;14.288;2023-03-01T07:01:23;98207.53;;;-3.18;79.26
77003;BME280;65939;50.060;14.288;2023-03-01T07:03:23;98212.38;;;-3.10;79.27
77003;BME280;65939;50.060;14.288;2023-03-01T07:05:24;98208.81;;;-3.05;79.29
77003;BME280;65939;50.060;14.288;2023-03-01T07:07:25;98222.22;;;-2.98;78.89
77003;BME280;65939;50.060;14.288;2023-03-01T07:09:26;98213.50;;;-2.93;79.13
77003;BME280;65939;50.060;14.288;2023-03-01T07:11:26;98225.31;;;-2.89;79.39
77003;BME280;65939;50.060;14.288;2023-03-01T07:13:27;98220.84;;;-2.82;78.94
77003;BME280;65939;50.060;14.288;2023-03-01T07:15:28;98223.13;;;-2.74;78.98
77003;BME280;65939;50.060;14.288;2023-03-01T07:17:29;98231.41;;;-2.66;79.12
77003;BME280;65939;50.060;14.288;2023-03-01T07:19:29;98232.13;;;-2.62;78.70
77003;BME280;65939;50.060;14.288;2023-03-01T07:21:30;98233.72;;;-2.60;78.64
77003;BME280;65939;50.060;14.288;2023-03-01T07:23:31;98236.28;;;-2.60;78.69
77003;BME280;65939;50.060;14.288;2023-03-01T07:25:32;98237.97;;;-2.59;78.54
77003;BME280;65939;50.060;14.288;2023-03-01T07:27:33;98231.97;;;-2.58;78.64
77003;BME280;65939;50.060;14.288;2023-03-01T07:29:33;98234.44;;;-2.55;78.61
77003;BME280;65939;50.060;14.288;2023-03-01T07:31:36;98237.75;;;-2.53;78.32
77003;BME280;65939;50.060;14.288;2023-03-01T07:33:37;98232.53;;;-2.50;78.53
77003;BME280;65939;50.060;14.288;2023-03-01T07:35:37;98232.34;;;-2.44;78.37
77003;BME280;65939;50.060;14.288;2023-03-01T07:37:38;98232.97;;;-2.37;78.63
77003;BME280;65939;50.060;14.288;2023-03-01T07:39:39;98233.59;;;-2.30;78.88
77003;BME280;65939;50.060;14.288;2023-03-01T07:41:39;98233.38;;;-2.24;78.26
77003;BME280;65939;50.060;14.288;2023-03-01T07:43:40;98233.28;;;-2.21;78.57
77003;BME280;65939;50.060;14.288;2023-03-01T07:45:40;98234.91;;;-2.19;78.46
77003;BME280;65939;50.060;14.288;2023-03-01T07:47:41;98229.59;;;-2.14;78.12
77003;BME280;65939;50.060;14.288;2023-03-01T07:49:42;98234.63;;;-2.11;78.12
77003;BME280;65939;50.060;14.288;2023-03-01T07:51:43;98233.59;;;-2.05;77.66
77003;BME280;65939;50.060;14.288;2023-03-01T07:53:46;98229.13;;;-2.00;77.81
77003;BME280;65939;50.060;14.288;2023-03-01T07:55:48;98222.16;;;-1.97;77.73
77003;BME280;65939;50.060;14.288;2023-03-01T07:57:48;98231.31;;;-1.89;77.57
77003;BME280;65939;50.060;14.288;2023-03-01T07:59:49;98232.03;;;-1.86;77.75
77003;BME280;65939;50.060;14.288;2023-03-01T08:01:49;98221.69;;;-1.83;77.14
77003;BME280;65939;50.060;14.288;2023-03-01T08:03:50;98234.44;;;-1.81;77.42
77003;BME280;65939;50.060;14.288;2023-03-01T08:05:50;98235.19;;;-1.79;77.24
77003;BME280;65939;50.060;14.288;2023-03-01T08:07:51;98224.75;;;-1.73;77.19
77003;BME280;65939;50.060;14.288;2023-03-01T08:09:52;98228.78;;;-1.67;77.13
77003;BME280;65939;50.060;14.288;2023-03-01T08:11:52;98229.34;;;-1.59;76.84
77003;BME280;65939;50.060;14.288;2023-03-01T08:13:54;98227.41;;;-1.53;76.69
77003;BME280;65939;50.060;14.288;2023-03-01T08:16:03;98220.25;;;-1.45;76.43
77003;BME280;65939;50.060;14.288;2023-03-01T08:18:05;98213.94;;;-1.36;76.33
77003;BME280;65939;50.060;14.288;2023-03-01T08:20:07;98220.44;;;-1.27;76.20
77003;BME280;65939;50.060;14.288;2023-03-01T08:22:08;98216.69;;;-1.18;75.96
77003;BME280;65939;50.060;14.288;2023-03-01T08:24:08;98213.09;;;-1.14;75.57
77003;BME280;65939;50.060;14.288;2023-03-01T08:26:16;98214.72;;;-1.12;75.19
77003;BME280;65939;50.060;14.288;2023-03-01T08:28:18;98210.22;;;-1.07;75.41
77003;BME280;65939;50.060;14.288;2023-03-01T08:30:19;98210.81;;;-1.00;74.97
77003;BME280;65939;50.060;14.288;2023-03-01T08:32:20;98205.44;;;-0.92;75.19
77003;BME280;65939;50.060;14.288;2023-03-01T08:34:21;98204.28;;;-0.85;75.08
77003;BME280;65939;50.060;14.288;2023-03-01T08:36:23;98218.25;;;-0.72;74.57
77003;BME280;65939;50.060;14.288;2023-03-01T08:38:24;98210.94;;;-0.61;73.96
77003;BME280;65939;50.060;14.288;2023-03-01T08:40:25;98211.28;;;-0.48;74.38
77003;BME280;65939;50.060;14.288;2023-03-01T08:42:26;98209.91;;;-0.36;73.83
77003;BME280;65939;50.060;14.288;2023-03-01T08:44:27;98203.38;;;-0.23;74.30
77003;BME280;65939;50.060;14.288;2023-03-01T08:46:29;98208.81;;;-0.10;73.83
77003;BME280;65939;50.060;14.288;2023-03-01T08:48:30;98207.44;;;0.02;73.17
77003;BME280;65939;50.060;14.288;2023-03-01T08:50:30;98207.91;;;0.10;72.46
77003;BME280;65939;50.060;14.288;2023-03-01T08:52:32;98208.34;;;0.19;72.90
77003;BME280;65939;50.060;14.288;2023-03-01T08:54:33;98208.84;;;0.28;71.81
77003;BME280;65939;50.060;14.288;2023-03-01T08:56:33;98202.47;;;0.36;72.22
77003;BME280;65939;50.060;14.288;2023-03-01T08:58:35;98200.25;;;0.47;72.32
77003;BME280;65939;50.060;14.288;2023-03-01T09:00:36;98206.75;;;0.55;71.45
77003;BME280;65939;50.060;14.288;2023-03-01T09:02:36;98201.19;;;0.64;71.35
77003;BME280;65939;50.060;14.288;2023-03-01T09:04:40;98194.78;;;0.73;71.02
77003;BME280;65939;50.060;14.288;2023-03-01T09:06:40;98189.38;;;0.79;70.19
77003;BME280;65939;50.060;14.288;2023-03-01T09:08:44;98197.44;;;0.88;69.87
77003;BME280;65939;50.060;14.288;2023-03-01T09:10:45;98190.06;;;1.00;70.14
77003;BME280;65939;50.060;14.288;2023-03-01T09:12:46;98187.88;;;1.09;69.77
77003;BME280;65939;50.060;14.288;2023-03-01T09:14:46;98188.19;;;1.20;69.53
77003;BME280;65939;50.060;14.288;2023-03-01T09:16:47;98186.00;;;1.30;68.82
77003;BME280;65939;50.060;14.288;2023-03-01T09:18:50;98183.19;;;1.35;68.34
77003;BME280;65939;50.060;14.288;2023-03-01T09:20:51;98180.09;;;1.46;68.95
77003;BME280;65939;50.060;14.288;2023-03-01T09:22:52;98177.06;;;1.55;68.81
77003;BME280;65939;50.060;14.288;2023-03-01T09:24:52;98178.31;;;1.63;67.98
77003;BME280;65939;50.060;14.288;2023-03-01T09:26:54;98177.03;;;1.72;67.64
77003;BME280;65939;50.060;14.288;2023-03-01T09:28:56;98175.03;;;1.77;67.10
77003;BME280;65939;50.060;14.288;2023-03-01T09:30:58;98168.91;;;1.80;66.29
77003;BME280;65939;50.060;14.288;2023-03-01T09:32:59;98174.75;;;1.83;65.62
77003;BME280;65939;50.060;14.288;2023-03-01T09:35:00;98173.59;;;1.89;66.41
77003;BME280;65939;50.060;14.288;2023-03-01T09:37:06;98171.44;;;1.97;66.55
77003;BME280;65939;50.060;14.288;2023-03-01T09:39:07;98171.13;;;2.03;65.31
77003;BME280;65939;50.060;14.288;2023-03-01T09:43:42;98161.50;;;2.07;65.24
77003;BME280;65939;50.060;14.288;2023-03-01T09:45:47;98168.00;;;2.14;65.41
77003;BME280;65939;50.060;14.288;2023-03-01T09:47:49;98166.00;;;2.19;63.54
77003;BME280;65939;50.060;14.288;2023-03-01T09:50:14;98159.91;;;2.20;64.07
77003;BME280;65939;50.060;14.288;2023-03-01T09:52:28;98153.53;;;2.27;64.35
77003;BME280;65939;50.060;14.288;2023-03-01T09:54:31;98154.19;;;2.31;63.57
77003;BME280;65939;50.060;14.288;2023-03-01T09:56:40;98152.13;;;2.37;63.70
77003;BME280;65939;50.060;14.288;2023-03-01T09:58:57;98150.88;;;2.45;63.23
77003;BME280;65939;50.060;14.288;2023-03-01T10:01:24;98157.84;;;2.58;63.76
77003;BME280;65939;50.060;14.288;2023-03-01T10:03:52;98154.59;;;2.71;63.36
77003;BME280;65939;50.060;14.288;2023-03-01T10:06:05;98149.84;;;2.79;63.50
77003;BME280;65939;50.060;14.288;2023-03-01T10:10:28;98141.34;;;2.93;62.76
77003;BME280;65939;50.060;14.288;2023-03-01T10:12:40;98141.63;;;3.02;63.20
77003;BME280;65939;50.060;14.288;2023-03-01T10:14:57;98137.53;;;3.14;63.90
77003;BME280;65939;50.060;14.288;2023-03-01T10:21:41;98127.97;;;3.30;61.87
77003;BME280;65939;50.060;14.288;2023-03-01T10:23:44;98125.38;;;3.30;61.20
77003;BME280;65939;50.060;14.288;2023-03-01T10:28:12;98126.50;;;3.41;61.63
77003;BME280;65939;50.060;14.288;2023-03-01T10:30:26;98125.41;;;3.45;60.94
77003;BME280;65939;50.060;14.288;2023-03-01T10:32:30;98120.72;;;3.51;61.52
77003;BME280;65939;50.060;14.288;2023-03-01T10:34:34;98121.00;;;3.61;61.53
77003;BME280;65939;50.060;14.288;2023-03-01T10:36:38;98117.22;;;3.67;60.52
77003;BME280;65939;50.060;14.288;2023-03-01T10:38:55;98122.84;;;3.73;60.86
77003;BME280;65939;50.060;14.288;2023-03-01T10:41:05;98127.47;;;3.82;60.73
77003;BME280;65939;50.060;14.288;2023-03-01T10:43:12;98124.59;;;3.87;60.45
77003;BME280;65939;50.060;14.288;2023-03-01T10:45:31;98118.03;;;3.96;60.32
77003;BME280;65939;50.060;14.288;2023-03-01T10:47:32;98114.53;;;3.97;59.25
77003;BME280;65939;50.060;14.288;2023-03-01T10:49:35;98108.91;;;3.90;58.70
77003;BME280;65939;50.060;14.288;2023-03-01T10:51:36;98111.59;;;3.89;58.82
77003;BME280;65939;50.060;14.288;2023-03-01T10:53:41;98111.59;;;3.89;58.89
77003;BME280;65939;50.060;14.288;2023-03-01T10:55:43;98112.31;;;3.91;58.60
77003;BME280;65939;50.060;14.288;2023-03-01T10:57:44;98101.16;;;3.90;59.57
77003;BME280;65939;50.060;14.288;2023-03-01T10:59:44;98103.19;;;3.99;58.95
77003;BME280;65939;50.060;14.288;2023-03-01T11:01:45;98096.72;;;4.06;59.35
77003;BME280;65939;50.060;14.288;2023-03-01T11:04:10;98090.06;;;4.17;58.84
77003;BME280;65939;50.060;14.288;2023-03-01T11:08:11;98096.72;;;4.33;59.18